Wednesday, February 22, 2017, 12:23 PM EST

KMUI, Muir Army Air Field / Indiantown

Location: Jonestown, PA, United States Lat: 40.433
Local Time: 12:23 PM EST (17:23 GMT) Lon: -76.567
Time Zone: US/Eastern Elev: 488 ft

Show me the last for .
Show Decoded

2017-02-22 11:58 METAR KMUI 221658Z AUTO VRB03KT 10SM SCT110 10/05 A2998 RMK AO2 SLP157 T00980045
                 $ =
2017-02-22 10:58 METAR KMUI 221558Z AUTO 00000KT 10SM BKN150 08/05 A3000 RMK AO2 SLP164 T00820050
                 $ =
2017-02-22 09:58 METAR KMUI 221458Z AUTO 00000KT 10SM BKN130 07/05 A3002 RMK AO2 SLP171 T00670050
                 58002 $ =
2017-02-22 08:58 METAR KMUI 221358Z AUTO VRB03KT 10SM FEW085 SCT130 06/05 A3002 RMK AO2 SLP172
                 T00590053 $ =
2017-02-22 07:58 METAR KMUI 221258Z AUTO 00000KT 10SM SCT075 BKN140 05/05 A3003 RMK AO2 SLP175
                 T00480047 $ =
2017-02-22 06:58 METAR KMUI 221158Z AUTO 00000KT 10SM FEW070 BKN095 OVC130 05/04 A3002 RMK AO2
                 SLP172 60000 T00450044 10046 20035 58002 $ =
2017-02-22 05:58 METAR KMUI 221058Z AUTO 00000KT 10SM BKN070 BKN095 OVC130 04/04 A3002 RMK AO2
                 SLP172 T00380037 $ =
2017-02-22 04:58 METAR KMUI 220958Z AUTO 00000KT 10SM FEW100 OVC130 04/04 A3003 RMK AO2 SLP175
                 T00380037 $ =
2017-02-22 03:58 METAR KMUI 220858Z AUTO 00000KT 10SM OVC130 04/04 A3003 RMK AO2 RAB05E06DZB06E16
                 SLP175 P0000 60000 T00400039 57014 $ =
2017-02-22 03:16 METAR KMUI 220816Z AUTO 00000KT 10SM BKN090 OVC120 04/03 A3003 RMK AO2
                 RAB05E06DZB06E16 $ =
2017-02-22 03:05 METAR KMUI 220805Z AUTO 00000KT 10SM -RA BKN095 OVC120 04/03 A3003 RMK AO2 RAB05
                 $ =
2017-02-22 02:58 METAR KMUI 220758Z AUTO 00000KT 10SM BKN100 OVC120 04/03 A3003 RMK AO2 SLP175
                 T00350033 $ =
2017-02-22 01:58 METAR KMUI 220658Z AUTO 04003KT 10SM FEW120 04/03 A3005 RMK AO2 SLP181 T00400029
                 $ =
2017-02-22 00:58 METAR KMUI 220558Z AUTO 00000KT 10SM CLR 05/03 A3007 RMK AO2 SLP188 T00460028
                 10064 20046 57020 $ =
2017-02-21 23:58 METAR KMUI 220458Z AUTO 00000KT 10SM CLR 05/02 A3009 RMK AO2 SLP195 T00480023
                 400971023 $ =
2017-02-21 22:58 METAR KMUI 220358Z AUTO 00000KT 10SM SCT095 05/01 A3011 RMK AO2 SLP202 T00520014
                 $ =
2017-02-21 21:58 METAR KMUI 220258Z AUTO 00000KT 10SM BKN100 06/M01 A3013 RMK AO2 SLP209
                 T00591010 58007 $ =
2017-02-21 20:58 METAR KMUI 220158Z AUTO 00000KT 10SM BKN120 06/M03 A3016 RMK AO2 SLP220
                 T00601027 $ =
2017-02-21 19:58 METAR KMUI 220058Z AUTO 00000KT 10SM BKN140 BKN200 06/M03 A3015 RMK AO2 SLP217
                 T00551027 $ =
2017-02-21 18:58 METAR KMUI 212358Z AUTO 00000KT 10SM CLR 07/M03 A3015 RMK AO2 SLP217 T00651033
                 10097 20062 55005 $ =
2017-02-21 17:58 METAR KMUI 212258Z AUTO 00000KT 10SM FEW230 08/M03 A3015 RMK AO2 SLP216
                 T00801034 $ =
2017-02-21 16:58 METAR KMUI 212158Z AUTO 14005KT 10SM CLR 09/M04 A3015 RMK AO2 SLP216 T00881036 $
                 =
2017-02-21 15:58 METAR KMUI 212058Z AUTO 16006KT 10SM FEW210 09/M03 A3016 RMK AO2 SLP219
                 T00901035 57024 $ =
2017-02-21 14:58 METAR KMUI 211958Z AUTO 17008KT 10SM CLR 09/M04 A3017 RMK AO2 SLP223 T00941039 $
                 =
2017-02-21 13:58 METAR KMUI 211858Z AUTO 19007KT 10SM FEW180 09/M05 A3021 RMK AO2 SLP236
                 T00881047 $ =
2017-02-21 12:58 METAR KMUI 211758Z AUTO 19007KT 10SM FEW190 08/M06 A3024 RMK AO2 SLP247
                 T00791058 10080 21013 57029 $ =

Support USWX by starting your Amazon purchase here.